createdAt,value
2022-11-13T00:00:54.298Z,79.32
2022-11-13T00:03:21.043Z,79.64
2022-11-13T00:05:47.630Z,79.90
2022-11-13T00:08:14.606Z,79.86
2022-11-13T00:10:41.120Z,79.81
2022-11-13T00:13:07.678Z,79.90
2022-11-13T00:15:34.638Z,79.88
2022-11-13T00:18:03.074Z,79.69
2022-11-13T00:20:29.864Z,79.58
2022-11-13T00:22:56.738Z,79.74
2022-11-13T00:25:23.248Z,79.84
2022-11-13T00:27:49.748Z,79.72
2022-11-13T00:30:19.539Z,78.95
2022-11-13T00:32:46.341Z,78.40
2022-11-13T00:35:13.341Z,79.17
2022-11-13T00:37:39.910Z,79.56
2022-11-13T00:40:06.876Z,79.55
2022-11-13T00:42:33.760Z,79.59
2022-11-13T00:45:00.255Z,79.72
2022-11-13T00:47:26.787Z,79.37
2022-11-13T00:49:53.663Z,79.79
2022-11-13T00:52:20.243Z,79.83
2022-11-13T00:54:47.119Z,78.85
2022-11-13T00:57:14.229Z,78.92
2022-11-13T00:59:40.727Z,79.24
2022-11-13T01:02:07.849Z,79.67
2022-11-13T01:04:34.394Z,79.29
2022-11-13T01:07:00.936Z,79.88
2022-11-13T01:09:27.528Z,79.58
2022-11-13T01:11:54.077Z,80.17
2022-11-13T01:14:20.578Z,79.75
2022-11-13T01:16:47.123Z,79.83
2022-11-13T01:19:14.474Z,79.81
2022-11-13T01:21:41.669Z,79.55
2022-11-13T01:24:08.648Z,79.60
2022-11-13T01:26:35.444Z,78.89
2022-11-13T01:29:02.370Z,78.92
2022-11-13T01:31:30.983Z,79.04
2022-11-13T01:33:58.193Z,79.04
2022-11-13T01:36:27.725Z,79.53
2022-11-13T01:38:55.218Z,79.34
2022-11-13T01:41:26.181Z,79.76
2022-11-13T01:43:54.688Z,79.79
2022-11-13T01:46:35.707Z,79.63
2022-11-13T01:49:05.243Z,80.27
2022-11-13T01:51:41.149Z,80.25
2022-11-13T01:54:12.832Z,80.70
2022-11-13T01:56:40.380Z,80.18
2022-11-13T01:59:15.755Z,80.28
2022-11-13T02:01:42.907Z,80.10
2022-11-13T02:04:09.531Z,79.25
2022-11-13T02:06:57.820Z,79.33
2022-11-13T02:09:29.496Z,79.29
2022-11-13T02:11:56.897Z,79.43
2022-11-13T02:14:26.664Z,79.15
2022-11-13T02:17:00.897Z,79.00
2022-11-13T02:19:39.781Z,79.18
2022-11-13T02:22:21.470Z,78.36
2022-11-13T02:24:54.480Z,78.02
2022-11-13T02:27:29.644Z,78.17
2022-11-13T02:29:56.197Z,79.10
2022-11-13T02:32:22.792Z,78.99
2022-11-13T02:34:49.268Z,79.46
2022-11-13T02:37:15.781Z,78.70
2022-11-13T02:39:42.285Z,78.58
2022-11-13T02:42:08.837Z,78.73
2022-11-13T02:44:35.346Z,78.29
2022-11-13T02:47:01.846Z,77.94
2022-11-13T02:49:28.341Z,77.51
2022-11-13T02:51:54.853Z,78.29
2022-11-13T02:54:21.367Z,77.50
2022-11-13T02:56:47.895Z,78.16
2022-11-13T02:59:14.728Z,78.08
2022-11-13T03:01:41.672Z,78.66
2022-11-13T03:04:08.213Z,79.15
2022-11-13T03:06:34.876Z,79.30
2022-11-13T03:09:01.385Z,78.77
2022-11-13T03:11:27.877Z,78.33
2022-11-13T03:13:54.465Z,78.02
2022-11-13T03:16:21.340Z,78.30
2022-11-13T03:18:47.828Z,78.76
2022-11-13T03:21:16.126Z,78.69
2022-11-13T03:23:45.345Z,78.45
2022-11-13T03:26:15.036Z,78.68
2022-11-13T03:28:41.763Z,77.87
2022-11-13T03:31:08.963Z,77.66
2022-11-13T03:33:35.546Z,78.07
2022-11-13T03:36:02.189Z,78.28
2022-11-13T03:38:29.147Z,78.46
2022-11-13T03:40:56.128Z,78.97
2022-11-13T03:43:23.201Z,79.41
2022-11-13T03:45:49.765Z,79.32
2022-11-13T03:48:16.877Z,78.89
2022-11-13T03:50:45.750Z,79.53
2022-11-13T03:53:13.147Z,79.59
2022-11-13T03:55:39.802Z,79.81
2022-11-13T03:58:06.583Z,79.53
2022-11-13T04:00:33.747Z,79.38
2022-11-13T04:03:00.541Z,79.60
2022-11-13T04:05:27.641Z,80.25
2022-11-13T04:07:54.249Z,79.23
2022-11-13T04:10:21.254Z,79.25
2022-11-13T04:12:47.771Z,79.58
2022-11-13T04:15:14.420Z,79.37
2022-11-13T04:17:40.992Z,80.16
2022-11-13T04:20:08.710Z,80.33
2022-11-13T04:22:35.366Z,80.55
2022-11-13T04:25:02.221Z,80.60
2022-11-13T04:27:28.800Z,80.92
2022-11-13T04:29:55.324Z,80.96
2022-11-13T04:32:21.922Z,81.01
2022-11-13T04:34:48.422Z,79.84
2022-11-13T04:37:15.140Z,80.01
2022-11-13T04:39:41.974Z,80.12
2022-11-13T04:42:29.805Z,79.63
2022-11-13T04:44:56.666Z,79.82
2022-11-13T04:47:23.339Z,80.28
2022-11-13T04:49:49.843Z,80.16
2022-11-13T04:52:16.443Z,79.80
2022-11-13T04:54:42.968Z,80.40
2022-11-13T04:57:09.567Z,79.82
2022-11-13T04:59:36.083Z,79.47
2022-11-13T05:02:03.084Z,80.19
2022-11-13T05:04:29.583Z,80.09
2022-11-13T05:06:56.146Z,79.72
2022-11-13T05:09:22.682Z,79.59
2022-11-13T05:11:49.162Z,80.45
2022-11-13T05:14:15.727Z,80.04
2022-11-13T05:16:42.249Z,79.62
2022-11-13T05:19:08.758Z,79.76
2022-11-13T05:21:36.422Z,79.38
2022-11-13T05:24:03.488Z,80.22
2022-11-13T05:26:30.407Z,80.33
2022-11-13T05:28:58.962Z,80.04
2022-11-13T05:31:26.179Z,79.85
2022-11-13T05:33:53.904Z,79.16
2022-11-13T05:36:21.052Z,79.18
2022-11-13T05:38:47.625Z,79.53
2022-11-13T05:41:17.013Z,79.78
2022-11-13T05:43:43.676Z,80.36
2022-11-13T05:46:24.701Z,80.68
2022-11-13T05:48:56.886Z,80.72
2022-11-13T05:51:25.628Z,80.19
2022-11-13T05:53:53.044Z,80.14
2022-11-13T05:56:25.003Z,79.51
2022-11-13T05:58:52.996Z,79.89
2022-11-13T06:01:23.647Z,79.59
2022-11-13T06:03:50.581Z,79.55
2022-11-13T06:06:20.508Z,80.04
2022-11-13T06:08:48.850Z,80.23
2022-11-13T06:11:18.967Z,80.24
2022-11-13T06:13:46.691Z,80.19
2022-11-13T06:16:16.529Z,80.23
2022-11-13T06:18:45.768Z,80.22
2022-11-13T06:21:15.259Z,80.03
2022-11-13T06:23:42.008Z,79.91
2022-11-13T06:26:12.205Z,79.91
2022-11-13T06:28:39.431Z,79.87
2022-11-13T06:31:09.018Z,79.47
2022-11-13T06:33:36.553Z,79.33
2022-11-13T06:36:05.268Z,79.43
2022-11-13T06:38:33.176Z,79.66
2022-11-13T06:41:00.764Z,79.69
2022-11-13T06:43:28.281Z,80.17
2022-11-13T06:45:56.033Z,79.97
2022-11-13T06:48:22.848Z,80.05
2022-11-13T06:50:49.959Z,81.12
2022-11-13T06:53:17.117Z,80.92
2022-11-13T06:55:48.791Z,81.05
2022-11-13T06:58:15.976Z,81.07
2022-11-13T07:00:43.848Z,80.33
2022-11-13T07:03:20.291Z,80.20
2022-11-13T07:05:47.511Z,79.82
2022-11-13T07:08:15.259Z,79.74
2022-11-13T07:10:42.498Z,79.33
2022-11-13T07:13:09.930Z,79.26
2022-11-13T07:15:37.792Z,79.30
2022-11-13T07:18:05.979Z,78.76
2022-11-13T07:20:33.409Z,78.39
2022-11-13T07:23:01.825Z,78.73
2022-11-13T07:25:29.070Z,77.35
2022-11-13T07:27:55.605Z,78.42
2022-11-13T07:30:22.473Z,78.03
2022-11-13T07:32:49.033Z,77.45
2022-11-13T07:35:16.888Z,78.31
2022-11-13T07:37:43.969Z,78.58
2022-11-13T07:40:11.806Z,78.45
2022-11-13T07:42:38.908Z,78.10
2022-11-13T07:45:06.069Z,77.51
2022-11-13T07:47:32.788Z,76.37
2022-11-13T07:50:05.513Z,77.22
2022-11-13T07:52:36.158Z,76.55
2022-11-13T07:55:02.708Z,76.40
2022-11-13T07:57:29.224Z,75.97
2022-11-13T07:59:55.746Z,76.24
2022-11-13T08:02:26.240Z,75.96
2022-11-13T08:04:52.999Z,75.47
2022-11-13T08:07:19.542Z,74.79
2022-11-13T08:09:46.107Z,74.14
2022-11-13T08:12:12.835Z,73.86
2022-11-13T08:14:39.761Z,73.91
2022-11-13T08:17:06.215Z,73.91
2022-11-13T08:19:32.924Z,73.77
2022-11-13T08:21:59.373Z,73.75
2022-11-13T08:24:25.831Z,73.75
2022-11-13T08:26:52.624Z,73.75
2022-11-13T08:29:21.338Z,73.38
2022-11-13T08:31:47.775Z,73.52
2022-11-13T08:34:14.933Z,72.99
2022-11-13T08:36:41.402Z,72.92
2022-11-13T08:39:09.777Z,73.25
2022-11-13T08:41:36.219Z,72.26
2022-11-13T08:44:02.727Z,71.90
2022-11-13T08:46:29.638Z,71.46
2022-11-13T08:48:56.100Z,71.27
2022-11-13T08:51:22.581Z,70.79
2022-11-13T08:53:49.130Z,69.90
2022-11-13T08:56:15.632Z,69.64
2022-11-13T08:58:42.142Z,69.16
2022-11-13T09:01:08.897Z,67.42
2022-11-13T09:03:36.962Z,66.95
2022-11-13T09:06:07.699Z,66.71
2022-11-13T09:08:34.602Z,66.50
2022-11-13T09:11:05.281Z,65.25
2022-11-13T09:13:37.538Z,64.89
2022-11-13T09:16:07.748Z,64.36
2022-11-13T09:18:34.415Z,64.56
2022-11-13T09:21:01.984Z,64.41
2022-11-13T09:23:29.118Z,64.56
2022-11-13T09:25:56.186Z,64.87
2022-11-13T09:28:22.896Z,64.58
2022-11-13T09:30:50.042Z,64.49
2022-11-13T09:33:16.586Z,64.23
2022-11-13T09:35:43.529Z,63.97
2022-11-13T09:38:12.500Z,63.30
2022-11-13T09:41:13.321Z,62.79
2022-11-13T09:43:43.618Z,62.56
2022-11-13T09:46:25.549Z,61.88
2022-11-13T09:49:04.949Z,61.32
2022-11-13T09:51:36.489Z,61.08
2022-11-13T09:54:11.480Z,60.34
2022-11-13T09:56:43.322Z,60.18
2022-11-13T09:59:16.851Z,60.08
2022-11-13T10:02:08.224Z,60.02
2022-11-13T10:05:05.717Z,59.90
2022-11-13T10:07:49.227Z,59.13
2022-11-13T10:10:54.912Z,58.81
2022-11-13T10:13:28.985Z,57.93
2022-11-13T10:16:23.207Z,58.37
2022-11-13T10:18:51.226Z,57.98
2022-11-13T10:21:31.024Z,58.20
2022-11-13T10:23:57.775Z,57.47
2022-11-13T10:26:28.048Z,57.19
2022-11-13T10:29:02.532Z,57.60
2022-11-13T10:31:29.115Z,56.80
2022-11-13T10:33:57.521Z,56.55
2022-11-13T10:36:41.871Z,56.01
2022-11-13T10:39:09.501Z,56.30
2022-11-13T10:41:51.472Z,54.84
2022-11-13T10:44:22.688Z,54.89
2022-11-13T10:46:49.500Z,55.69
2022-11-13T10:49:21.327Z,55.36
2022-11-13T10:51:56.604Z,54.77
2022-11-13T10:54:31.680Z,55.10
2022-11-13T10:57:03.647Z,54.25
2022-11-13T10:59:39.815Z,54.80
2022-11-13T11:02:15.444Z,54.81
2022-11-13T11:04:41.947Z,55.10
2022-11-13T11:07:20.903Z,55.47
2022-11-13T11:09:50.785Z,55.64
2022-11-13T11:12:23.089Z,55.33
2022-11-13T11:15:01.468Z,55.82
2022-11-13T11:17:44.160Z,55.51
2022-11-13T11:20:22.085Z,55.49
2022-11-13T11:22:58.899Z,55.50
2022-11-13T11:25:31.231Z,54.46
2022-11-13T11:28:17.425Z,54.08
2022-11-13T11:30:51.418Z,52.97
2022-11-13T11:33:37.375Z,52.63
2022-11-13T11:36:36.276Z,51.17
2022-11-13T11:39:40.149Z,49.82
2022-11-13T11:42:15.773Z,49.96
2022-11-13T11:45:02.705Z,49.94
2022-11-13T11:47:30.465Z,47.79
2022-11-13T11:49:56.993Z,47.25
2022-11-13T11:52:40.065Z,47.01
2022-11-13T11:55:40.422Z,47.65
2022-11-13T11:58:16.089Z,48.65
2022-11-13T12:01:09.904Z,48.75
2022-11-13T12:03:58.465Z,48.50
2022-11-13T12:07:00.465Z,49.42
2022-11-13T12:09:33.582Z,49.20
2022-11-13T12:12:15.710Z,49.30
2022-11-13T12:14:48.200Z,48.29
2022-11-13T12:17:39.625Z,47.86
2022-11-13T12:20:31.071Z,46.61
2022-11-13T12:23:20.235Z,46.47
2022-11-13T12:25:54.571Z,46.30
2022-11-13T12:28:30.033Z,45.85
2022-11-13T12:31:22.996Z,45.42
2022-11-13T12:34:01.973Z,44.86
2022-11-13T12:36:29.557Z,43.72
2022-11-13T12:39:20.226Z,43.03
2022-11-13T12:41:54.867Z,42.25
2022-11-13T12:44:27.621Z,42.69
2022-11-13T12:46:56.058Z,42.10
2022-11-13T12:49:22.515Z,42.09
2022-11-13T12:52:17.333Z,41.63
2022-11-13T12:54:43.913Z,41.72
2022-11-13T12:57:13.128Z,41.16
2022-11-13T12:59:43.282Z,41.02
2022-11-13T13:02:09.703Z,41.11
2022-11-13T13:04:48.395Z,41.03
2022-11-13T13:07:24.941Z,40.53
2022-11-13T13:10:22.325Z,41.40
2022-11-13T13:13:08.579Z,40.42
2022-11-13T13:15:49.041Z,40.19
2022-11-13T13:18:18.294Z,40.93
2022-11-13T13:20:56.899Z,41.25
2022-11-13T13:23:32.689Z,41.26
2022-11-13T13:26:15.245Z,42.14
2022-11-13T13:28:44.285Z,42.81
2022-11-13T13:31:22.921Z,43.61
2022-11-13T13:34:14.961Z,43.88
2022-11-13T13:36:53.575Z,43.96
2022-11-13T13:39:28.910Z,44.14
2022-11-13T13:42:06.967Z,44.70
2022-11-13T13:44:39.171Z,42.96
2022-11-13T13:47:14.348Z,44.75
2022-11-13T13:49:40.861Z,45.11
2022-11-13T13:52:07.406Z,44.85
2022-11-13T13:54:35.701Z,45.76
2022-11-13T13:57:02.257Z,43.69
2022-11-13T13:59:37.177Z,43.03
2022-11-13T14:02:15.358Z,43.56
2022-11-13T14:04:47.500Z,43.68
2022-11-13T14:07:26.683Z,44.27
2022-11-13T14:10:16.992Z,45.35
2022-11-13T14:12:45.297Z,45.91
2022-11-13T14:15:27.313Z,46.83
2022-11-13T14:18:08.903Z,47.04
2022-11-13T14:20:47.028Z,48.19
2022-11-13T14:23:38.429Z,48.73
2022-11-13T14:26:05.908Z,48.82
2022-11-13T14:28:49.709Z,49.18
2022-11-13T14:31:19.516Z,49.02
2022-11-13T14:33:49.557Z,49.39
2022-11-13T14:36:25.003Z,49.84
2022-11-13T14:38:52.600Z,50.18
2022-11-13T14:41:42.158Z,50.27
2022-11-13T14:44:11.780Z,49.29
2022-11-13T14:46:44.574Z,48.42
2022-11-13T14:49:35.376Z,48.38
2022-11-13T14:52:02.290Z,48.44
2022-11-13T14:54:59.984Z,48.35
2022-11-13T14:57:19.967Z,49.07
2022-11-13T14:59:46.538Z,49.83
2022-11-13T15:02:13.605Z,50.04
2022-11-13T15:04:41.015Z,49.95
2022-11-13T15:07:32.288Z,50.49
2022-11-13T15:09:59.507Z,50.93
2022-11-13T15:12:26.489Z,50.91
2022-11-13T15:14:53.032Z,51.10
2022-11-13T15:17:22.192Z,51.01
2022-11-13T15:19:52.840Z,50.87
2022-11-13T15:22:27.970Z,50.59
2022-11-13T15:24:55.214Z,49.34
2022-11-13T15:27:21.705Z,49.19
2022-11-13T15:29:48.156Z,49.34
2022-11-13T15:32:16.041Z,49.44
2022-11-13T15:34:42.865Z,49.27
2022-11-13T15:37:14.924Z,49.64
2022-11-13T15:39:41.457Z,49.86
2022-11-13T15:42:13.920Z,49.70
2022-11-13T15:44:40.870Z,49.65
2022-11-13T15:47:37.284Z,50.32
2022-11-13T15:50:14.776Z,50.59
2022-11-13T15:52:45.616Z,50.66
2022-11-13T15:55:26.722Z,51.61
2022-11-13T15:57:53.938Z,52.02
2022-11-13T16:00:25.322Z,52.60
2022-11-13T16:02:55.476Z,52.84
2022-11-13T16:05:56.199Z,52.73
2022-11-13T16:08:36.220Z,53.26
2022-11-13T16:11:02.730Z,54.03
2022-11-13T16:13:29.480Z,54.35
2022-11-13T16:15:56.587Z,54.60
2022-11-13T16:18:25.901Z,54.63
2022-11-13T16:20:52.375Z,55.25
2022-11-13T16:23:19.169Z,55.46
2022-11-13T16:25:47.553Z,56.21
2022-11-13T16:28:16.800Z,55.59
2022-11-13T16:30:44.373Z,55.74
2022-11-13T16:33:11.215Z,55.62
2022-11-13T16:35:39.331Z,55.95
2022-11-13T16:38:13.219Z,56.67
2022-11-13T16:40:42.921Z,56.66
2022-11-13T16:43:10.308Z,57.35
2022-11-13T16:45:38.393Z,57.63
2022-11-13T16:48:06.541Z,57.54
2022-11-13T16:50:34.777Z,57.66
2022-11-13T16:53:01.565Z,58.24
2022-11-13T16:55:28.198Z,58.49
2022-11-13T16:57:54.734Z,58.57
2022-11-13T17:00:21.477Z,58.89
2022-11-13T17:02:53.082Z,59.44
2022-11-13T17:05:21.168Z,59.19
2022-11-13T17:07:50.797Z,59.47
2022-11-13T17:10:35.803Z,60.24
2022-11-13T17:13:02.345Z,60.22
2022-11-13T17:15:28.882Z,60.50
2022-11-13T17:17:58.005Z,60.24
2022-11-13T17:20:24.590Z,60.65
2022-11-13T17:22:51.062Z,60.48
2022-11-13T17:25:18.697Z,60.45
2022-11-13T17:27:45.165Z,60.73
2022-11-13T17:30:12.938Z,61.00
2022-11-13T17:32:39.481Z,60.86
2022-11-13T17:35:06.419Z,61.35
2022-11-13T17:37:32.949Z,61.51
2022-11-13T17:39:59.398Z,61.56
2022-11-13T17:42:28.007Z,61.21
2022-11-13T17:44:54.455Z,61.31
2022-11-13T17:47:21.063Z,61.68
2022-11-13T17:49:47.585Z,61.67
2022-11-13T17:52:14.062Z,61.09
2022-11-13T17:54:40.559Z,60.64
2022-11-13T17:57:10.219Z,61.32
2022-11-13T17:59:36.890Z,61.25
2022-11-13T18:02:03.524Z,60.39
2022-11-13T18:04:30.001Z,60.58
2022-11-13T18:06:56.583Z,60.20
2022-11-13T18:09:23.121Z,59.71
2022-11-13T18:11:49.595Z,59.90
2022-11-13T18:14:16.343Z,59.68
2022-11-13T18:16:42.787Z,59.46
2022-11-13T18:19:09.481Z,59.29
2022-11-13T18:21:37.270Z,58.73
2022-11-13T18:24:11.865Z,59.34
2022-11-13T18:26:38.391Z,59.21
2022-11-13T18:29:05.360Z,59.55
2022-11-13T18:31:31.995Z,59.50
2022-11-13T18:33:59.803Z,59.76
2022-11-13T18:36:26.430Z,59.92
2022-11-13T18:38:53.131Z,59.02
2022-11-13T18:41:23.650Z,59.36
2022-11-13T18:43:51.807Z,59.59
2022-11-13T18:46:21.468Z,59.55
2022-11-13T18:48:49.078Z,59.47
2022-11-13T18:51:21.661Z,60.05
2022-11-13T18:53:49.734Z,59.39
2022-11-13T18:56:24.902Z,59.40
2022-11-13T18:58:53.325Z,60.14
2022-11-13T19:01:22.824Z,59.87
2022-11-13T19:04:16.182Z,60.14
2022-11-13T19:06:37.969Z,60.51
2022-11-13T19:09:07.361Z,60.94
2022-11-13T19:11:33.993Z,61.61
2022-11-13T19:14:00.823Z,62.26
2022-11-13T19:16:33.152Z,61.61
2022-11-13T19:19:03.320Z,61.86
2022-11-13T19:21:32.853Z,61.83
2022-11-13T19:24:01.315Z,61.90
2022-11-13T19:26:28.593Z,62.25
2022-11-13T19:28:55.584Z,62.59
2022-11-13T19:31:25.127Z,62.93
2022-11-13T19:34:10.466Z,62.24
2022-11-13T19:36:37.168Z,62.43
2022-11-13T19:39:04.433Z,62.27
2022-11-13T19:41:30.984Z,62.38
2022-11-13T19:43:59.768Z,62.28
2022-11-13T19:46:26.779Z,62.46
2022-11-13T19:48:53.401Z,63.10
2022-11-13T19:51:22.849Z,63.53
2022-11-13T19:53:54.000Z,63.81
2022-11-13T19:56:21.836Z,64.40
2022-11-13T19:58:49.950Z,64.86
2022-11-13T20:01:27.581Z,64.24
2022-11-13T20:04:04.823Z,64.92
2022-11-13T20:06:33.293Z,64.91
2022-11-13T20:09:00.654Z,64.81
2022-11-13T20:11:27.474Z,64.97
2022-11-13T20:13:55.740Z,65.78
2022-11-13T20:16:23.728Z,66.27
2022-11-13T20:18:51.212Z,66.76
2022-11-13T20:21:30.394Z,67.16
2022-11-13T20:23:58.754Z,67.25
2022-11-13T20:26:25.624Z,67.58
2022-11-13T20:28:52.222Z,66.72
2022-11-13T20:31:22.295Z,67.31
2022-11-13T20:33:54.598Z,68.01
2022-11-13T20:36:22.359Z,67.61
2022-11-13T20:38:54.088Z,67.74
2022-11-13T20:41:21.670Z,68.13
2022-11-13T20:43:48.949Z,67.62
2022-11-13T20:46:17.236Z,67.92
2022-11-13T20:48:45.550Z,68.15
2022-11-13T20:51:23.073Z,67.80
2022-11-13T20:53:50.285Z,67.54
2022-11-13T20:56:18.514Z,67.54
2022-11-13T20:58:45.300Z,67.77
2022-11-13T21:01:17.581Z,67.52
2022-11-13T21:03:45.726Z,67.05
2022-11-13T21:06:15.729Z,67.02
2022-11-13T21:08:43.167Z,66.72
2022-11-13T21:11:14.311Z,66.24
2022-11-13T21:13:40.768Z,66.40
2022-11-13T21:16:08.887Z,66.46
2022-11-13T21:18:35.805Z,66.82
2022-11-13T21:21:10.918Z,66.29
2022-11-13T21:23:37.783Z,66.09
2022-11-13T21:26:06.832Z,66.26
2022-11-13T21:28:34.372Z,66.50
2022-11-13T21:31:06.189Z,66.77
2022-11-13T21:33:37.257Z,66.66
2022-11-13T21:36:10.872Z,67.22
2022-11-13T21:38:37.554Z,67.09
2022-11-13T21:41:21.862Z,66.82
2022-11-13T21:43:53.408Z,66.91
2022-11-13T21:46:20.993Z,67.24
2022-11-13T21:48:48.884Z,67.52
2022-11-13T21:51:15.410Z,67.92
2022-11-13T21:53:42.991Z,67.98
2022-11-13T21:56:15.249Z,67.78
2022-11-13T21:58:42.561Z,67.90
2022-11-13T22:01:10.738Z,67.69
2022-11-13T22:03:37.625Z,68.01
2022-11-13T22:06:41.729Z,68.31
2022-11-13T22:09:14.718Z,68.51
2022-11-13T22:11:41.990Z,68.60
2022-11-13T22:14:09.007Z,68.68
2022-11-13T22:16:38.271Z,68.78
2022-11-13T22:19:06.965Z,69.25
2022-11-13T22:21:35.123Z,69.30
2022-11-13T22:24:02.094Z,69.20
2022-11-13T22:26:29.606Z,69.52
2022-11-13T22:29:00.466Z,69.39
2022-11-13T22:31:29.181Z,69.79
2022-11-13T22:33:56.285Z,69.56
2022-11-13T22:36:25.200Z,69.93
2022-11-13T22:38:52.105Z,69.72
2022-11-13T22:41:23.325Z,69.89
2022-11-13T22:43:53.580Z,69.50
2022-11-13T22:46:22.668Z,69.33
2022-11-13T22:48:50.656Z,69.23
2022-11-13T22:51:22.947Z,69.41
2022-11-13T22:53:52.017Z,69.33
2022-11-13T22:56:19.932Z,69.50
2022-11-13T22:58:46.959Z,70.01
2022-11-13T23:01:25.436Z,70.36
2022-11-13T23:03:53.421Z,70.31
2022-11-13T23:06:24.611Z,69.93
2022-11-13T23:08:51.600Z,69.84
2022-11-13T23:11:23.334Z,69.80
2022-11-13T23:13:52.631Z,69.90
2022-11-13T23:16:20.384Z,70.36
2022-11-13T23:18:47.291Z,70.21
2022-11-13T23:21:14.973Z,69.75
2022-11-13T23:23:42.444Z,69.42
2022-11-13T23:26:10.553Z,69.44
2022-11-13T23:28:38.381Z,69.90
2022-11-13T23:31:05.988Z,70.01
2022-11-13T23:33:32.886Z,70.22
2022-11-13T23:35:59.915Z,69.92
2022-11-13T23:38:26.471Z,69.93
2022-11-13T23:40:58.041Z,69.79
2022-11-13T23:43:41.653Z,69.30
2022-11-13T23:46:12.507Z,69.95
2022-11-13T23:48:40.239Z,70.03
2022-11-13T23:51:07.994Z,69.77
2022-11-13T23:53:34.533Z,69.71
2022-11-13T23:56:01.157Z,69.36
2022-11-13T23:58:28.111Z,69.67
